Time;durP1;ratioP1;P1;durP2;ratioP2;P2;SDS_P1;SDS_P2;PMS_P1;PMS_P2;Temp;Humidity;BMP_temperature;BMP_pressure;BME280_temperature;BME280_humidity;BME280_pressure;Samples;Min_cycle;Max_cycle;Signal;HPM_P1;HPM_P2
2022/02/07 00:02:04;;;;;;;12.55;2.10;;;;;;;4.57;100.00;100741.75;5215177;28;20068;-76
2022/02/07 00:04:38;;;;;;;12.73;2.53;;;;;;;4.57;100.00;100754.72;5215952;28;20022;-77
2022/02/07 00:07:14;;;;;;;7.95;1.98;;;;;;;4.57;100.00;100755.56;5214996;28;20077;-77
2022/02/07 00:09:46;;;;;;;12.52;3.13;;;;;;;4.49;100.00;100757.78;5197810;28;20418;-76
2022/02/07 00:12:17;;;;;;;14.68;2.55;;;;;;;4.57;100.00;100776.31;5215736;28;20034;-76
2022/02/07 00:14:49;;;;;;;14.13;2.70;;;;;;;4.50;100.00;100784.56;5213349;28;20028;-77
2022/02/07 00:17:22;;;;;;;12.48;2.42;;;;;;;4.54;100.00;100805.03;5197977;28;20144;-76
2022/02/07 00:19:53;;;;;;;14.48;3.13;;;;;;;4.58;100.00;100813.47;5214932;28;20017;-76
2022/02/07 00:22:24;;;;;;;13.80;3.33;;;;;;;4.53;100.00;100824.13;5214965;28;20021;-77
2022/02/07 00:24:56;;;;;;;14.45;2.97;;;;;;;4.54;100.00;100836.16;5214151;28;20030;-77
2022/02/07 00:27:27;;;;;;;13.73;2.80;;;;;;;4.59;100.00;100844.53;5213309;28;20040;-77
2022/02/07 00:29:58;;;;;;;15.60;2.70;;;;;;;4.58;100.00;100844.59;5202366;28;20088;-77
2022/02/07 00:32:30;;;;;;;15.13;2.70;;;;;;;4.50;100.00;100852.00;5215919;28;20116;-77
2022/02/07 00:35:08;;;;;;;11.13;2.92;;;;;;;4.56;100.00;100862.88;5214762;28;20061;-76
2022/02/07 00:37:42;;;;;;;17.23;3.88;;;;;;;4.58;100.00;100866.22;5197519;28;20597;-77
2022/02/07 00:40:29;;;;;;;15.27;3.05;;;;;;;4.58;100.00;100888.72;5214765;28;20390;-76
2022/02/07 00:43:13;;;;;;;16.40;3.30;;;;;;;4.49;100.00;100886.66;5215524;28;20042;-76
2022/02/07 00:48:24;;;;;;;17.42;3.63;;;;;;;4.64;100.00;100922.94;5214796;28;20107;-76
2022/02/07 00:50:56;;;;;;;20.52;3.05;;;;;;;4.71;100.00;100925.16;5215923;28;20461;-76
2022/02/07 00:53:28;;;;;;;10.80;2.65;;;;;;;4.74;100.00;100932.78;5213354;28;20072;-76
2022/02/07 00:56:01;;;;;;;13.25;2.38;;;;;;;4.79;100.00;100951.50;5214743;28;20376;-76
2022/02/07 00:58:33;;;;;;;8.73;2.13;;;;;;;4.88;100.00;100971.72;5214754;28;20096;-77
2022/02/07 01:01:04;;;;;;;9.15;1.50;;;;;;;4.81;100.00;100980.78;5197201;28;20029;-76
2022/02/07 01:03:36;;;;;;;4.03;1.15;;;;;;;4.58;100.00;100966.56;5214863;28;20560;-76
2022/02/07 01:06:07;;;;;;;3.83;0.80;;;;;;;4.43;100.00;100977.81;5228630;23;20509;-76
2022/02/07 01:08:44;;;;;;;2.53;0.50;;;;;;;4.28;100.00;100982.09;5215542;28;20036;-76
2022/02/07 01:11:33;;;;;;;3.40;0.63;;;;;;;4.15;100.00;100981.97;5223586;28;20040;-76
2022/02/07 01:15:15;;;;;;;5.60;0.77;;;;;;;4.07;100.00;100989.34;5223570;28;20033;-76
2022/02/07 01:20:44;;;;;;;7.00;1.60;;;;;;;4.03;100.00;101004.22;5194795;28;20401;-76
2022/02/07 01:48:49;;;;;;;12.80;1.80;;;;;;;4.35;100.00;101144.25;5227608;28;20041;-76
2022/02/07 01:53:53;;;;;;;8.98;2.08;;;;;;;4.24;100.00;101146.56;5227057;28;20108;-76
2022/02/07 01:56:29;;;;;;;10.88;1.95;;;;;;;4.16;100.00;101154.78;5228607;28;20495;-76
2022/02/07 01:59:00;;;;;;;10.00;1.92;;;;;;;4.10;100.00;101163.72;5227541;28;20022;-76
2022/02/07 02:01:33;;;;;;;11.15;2.67;;;;;;;4.11;100.00;101169.75;5225906;28;20025;-76
2022/02/07 02:04:06;;;;;;;12.18;1.92;;;;;;;4.07;100.00;101187.22;5224008;28;20034;-76
2022/02/07 02:06:39;;;;;;;9.30;1.70;;;;;;;4.14;100.00;101231.81;5225538;28;20038;-76
2022/02/07 02:09:11;;;;;;;14.18;2.55;;;;;;;4.08;100.00;101245.91;5227062;28;20041;-76
2022/02/07 02:11:46;;;;;;;14.55;2.63;;;;;;;4.01;100.00;101241.13;5225637;28;20021;-76
2022/02/07 02:17:23;;;;;;;12.70;2.40;;;;;;;3.88;100.00;101236.56;5224549;28;20044;-76
2022/02/07 02:20:43;;;;;;;8.95;1.88;;;;;;;3.88;100.00;101243.50;5226681;28;20033;-76
2022/02/07 02:47:59;;;;;;;12.20;3.10;;;;;;;4.05;100.00;101310.06;5225107;28;20116;-76
2022/02/07 02:50:35;;;;;;;18.33;3.13;;;;;;;4.08;100.00;101312.50;5224728;28;20096;-76
2022/02/07 02:53:11;;;;;;;12.35;2.38;;;;;;;4.14;100.00;101328.59;5210083;28;20441;-76
2022/02/07 02:55:45;;;;;;;11.10;2.05;;;;;;;4.05;100.00;101334.25;5227394;28;20374;-76
2022/02/07 02:58:19;;;;;;;12.75;2.45;;;;;;;4.16;100.00;101351.84;5226474;28;20029;-76
2022/02/07 03:00:52;;;;;;;10.70;2.10;;;;;;;4.17;100.00;101357.88;5224223;28;20037;-76
2022/02/07 03:03:23;;;;;;;17.70;3.30;;;;;;;4.19;100.00;101366.41;5224157;28;20371;-76
2022/02/07 03:05:55;;;;;;;21.15;3.95;;;;;;;4.19;100.00;101372.44;5221896;28;20060;-76
2022/02/07 03:08:26;;;;;;;9.43;2.00;;;;;;;4.17;100.00;101379.47;5225997;28;20029;-76
2022/02/07 03:11:09;;;;;;;13.27;2.80;;;;;;;4.09;100.00;101379.84;5222937;28;20560;-76
2022/02/07 03:13:55;;;;;;;12.20;2.30;;;;;;;4.18;100.00;101383.75;5225711;28;20932;-76
2022/02/07 03:16:37;;;;;;;11.23;2.10;;;;;;;4.17;100.00;101386.38;5224630;28;20505;-76
2022/02/07 03:19:11;;;;;;;17.08;2.53;;;;;;;4.11;100.00;101398.75;5225148;28;20120;-76
2022/02/07 03:21:44;;;;;;;11.15;2.55;;;;;;;4.14;100.00;101419.34;5224736;28;20032;-76
2022/02/07 03:24:15;;;;;;;14.52;3.20;;;;;;;4.09;100.00;101412.69;5223880;28;20037;-76
2022/02/07 03:26:47;;;;;;;11.43;2.65;;;;;;;4.15;100.00;101427.97;5227134;28;20108;-76
2022/02/07 03:29:18;;;;;;;14.32;3.03;;;;;;;4.10;100.00;101428.19;5224875;28;20038;-76
2022/02/07 03:31:49;;;;;;;10.85;2.28;;;;;;;4.25;100.00;101434.41;5223362;28;20032;-76
2022/02/07 03:34:21;;;;;;;12.75;3.17;;;;;;;4.30;100.00;101436.75;5225561;28;20018;-76
2022/02/07 03:36:52;;;;;;;14.30;2.85;;;;;;;4.31;100.00;101449.63;5223689;28;20108;-76
2022/02/07 03:39:23;;;;;;;23.20;2.97;;;;;;;4.31;100.00;101454.81;5208055;28;20478;-76
2022/02/07 03:41:55;;;;;;;14.80;3.58;;;;;;;4.34;100.00;101459.03;5223112;28;20128;-76
2022/02/07 03:44:26;;;;;;;17.50;2.83;;;;;;;4.37;100.00;101471.88;5225258;28;20383;-76
2022/02/07 03:46:57;;;;;;;21.38;3.47;;;;;;;4.38;100.00;101482.16;5223855;28;20160;-76
2022/02/07 03:49:31;;;;;;;16.85;2.97;;;;;;;4.38;100.00;101486.50;5221514;28;20021;-76
2022/02/07 03:52:02;;;;;;;13.82;3.15;;;;;;;4.31;100.00;101496.31;5224316;28;20080;-76
2022/02/07 03:54:33;;;;;;;13.45;2.80;;;;;;;4.28;100.00;101500.81;5225088;28;20030;-76
2022/02/07 03:57:05;;;;;;;14.50;3.10;;;;;;;4.26;100.00;101508.69;5223603;28;20037;-76
2022/02/07 03:59:36;;;;;;;14.13;3.38;;;;;;;4.21;100.00;101513.25;5206989;28;20022;-76
2022/02/07 04:02:08;;;;;;;14.05;4.03;;;;;;;4.16;100.00;101510.03;5224729;28;20086;-76
2022/02/07 04:04:42;;;;;;;18.17;3.60;;;;;;;4.20;100.00;101523.69;5217795;28;20022;-76
2022/02/07 04:07:16;;;;;;;18.05;4.47;;;;;;;4.19;100.00;101524.63;5222922;28;20484;-76
2022/02/07 04:09:52;;;;;;;;;;;;;;;4.54;100.00;101531.53;5207988;28;20064;-76
2022/02/07 04:12:26;;;;;;;17.55;3.17;;;;;;;4.00;100.00;101524.63;5207191;28;19917;-76
2022/02/07 04:14:58;;;;;;;15.40;2.60;;;;;;;4.10;100.00;101552.66;5225576;28;20483;-76
2022/02/07 04:17:30;;;;;;;14.75;2.92;;;;;;;4.06;100.00;101561.50;5225407;28;20022;-76
2022/02/07 04:20:02;;;;;;;19.83;3.60;;;;;;;4.08;100.00;101564.00;5223272;28;20119;-76
2022/02/07 04:22:34;;;;;;;13.77;2.85;;;;;;;4.09;100.00;101565.69;5223349;28;20034;-76
2022/02/07 04:25:06;;;;;;;17.92;3.58;;;;;;;4.11;100.00;101572.50;5224659;28;20083;-76
2022/02/07 04:27:37;;;;;;;13.50;3.15;;;;;;;4.21;100.00;101582.44;5221531;28;20437;-76
2022/02/07 04:30:10;;;;;;;20.23;3.80;;;;;;;4.24;100.00;101583.13;5223627;28;20022;-76
2022/02/07 04:32:41;;;;;;;26.73;4.38;;;;;;;4.28;100.00;101609.75;5223235;28;20147;-76
2022/02/07 04:35:13;;;;;;;17.85;3.40;;;;;;;4.28;100.00;101604.56;5223713;28;20116;-76
2022/02/07 04:37:44;;;;;;;18.83;3.05;;;;;;;4.40;100.00;101617.00;5225796;28;20084;-76
2022/02/07 04:40:15;;;;;;;19.15;2.88;;;;;;;4.43;100.00;101631.56;5222624;28;20057;-76
2022/02/07 04:42:47;;;;;;;15.02;2.80;;;;;;;4.44;100.00;101625.47;5230099;28;20548;-76
2022/02/07 04:50:50;;;;;;;15.95;2.78;;;;;;;4.49;100.00;101657.22;5226583;28;20026;-76
2022/02/07 04:53:37;;;;;;;15.20;3.05;;;;;;;4.48;100.00;101656.41;5221959;28;20149;-76
2022/02/07 04:56:19;;;;;;;17.98;3.45;;;;;;;4.51;100.00;101668.38;5222259;28;20032;-76
2022/02/07 05:01:33;;;;;;;12.57;3.30;;;;;;;4.52;100.00;101672.66;5225436;28;20490;-76
2022/02/07 05:04:17;;;;;;;18.40;3.42;;;;;;;4.47;100.00;101672.88;5226945;28;20026;-76
2022/02/07 05:15:33;;;;;;;10.75;2.58;;;;;;;4.46;100.00;101707.50;5223288;28;20524;-76
2022/02/07 05:18:06;;;;;;;13.88;2.72;;;;;;;4.50;100.00;101710.81;5227358;28;20074;-76
2022/02/07 05:20:37;;;;;;;15.32;3.08;;;;;;;4.48;100.00;101713.47;5226005;28;20414;-76
2022/02/07 05:23:08;;;;;;;16.73;3.03;;;;;;;4.56;100.00;101726.94;5228040;28;20026;-76
2022/02/07 05:25:40;;;;;;;15.55;2.83;;;;;;;4.53;100.00;101726.25;5228088;28;20372;-76
2022/02/07 05:28:11;;;;;;;18.52;3.22;;;;;;;4.53;100.00;101724.47;5225069;28;20033;-76
2022/02/07 05:30:42;;;;;;;14.07;2.95;;;;;;;4.58;100.00;101734.66;5225777;28;20087;-76
2022/02/07 05:33:15;;;;;;;17.05;3.20;;;;;;;4.70;100.00;101746.22;5227808;28;20041;-76
2022/02/07 05:35:46;;;;;;;22.67;3.07;;;;;;;4.74;100.00;101753.00;5225867;28;20037;-76
2022/02/07 05:38:17;;;;;;;15.80;3.72;;;;;;;4.76;100.00;101757.19;5225970;28;20037;-76
2022/02/07 05:40:56;;;;;;;15.43;2.67;;;;;;;4.79;100.00;101751.84;5227624;28;20021;-76
2022/02/07 05:43:27;;;;;;;12.35;2.80;;;;;;;4.83;100.00;101763.78;5222726;28;20105;-76
2022/02/07 05:45:58;;;;;;;12.18;2.80;;;;;;;4.91;100.00;101779.00;5229103;28;21027;-76
2022/02/07 05:48:30;;;;;;;22.38;3.22;;;;;;;4.88;100.00;101766.16;5226109;28;20033;-76
2022/02/07 05:51:01;;;;;;;16.67;3.40;;;;;;;4.92;100.00;101782.44;5225763;28;20026;-76
2022/02/07 05:53:32;;;;;;;16.58;2.50;;;;;;;4.88;100.00;101782.56;5226930;28;20029;-76
2022/02/07 05:56:04;;;;;;;15.00;3.17;;;;;;;4.91;100.00;101793.75;5226016;28;20041;-76
2022/02/07 05:58:35;;;;;;;16.38;2.92;;;;;;;4.94;100.00;101797.03;5224902;28;20147;-76
2022/02/07 06:01:06;;;;;;;12.70;2.40;;;;;;;4.96;100.00;101808.19;5227177;28;20038;-76
2022/02/07 06:03:38;;;;;;;17.80;3.33;;;;;;;4.91;100.00;101801.53;5225066;28;20079;-76
2022/02/07 06:06:09;;;;;;;16.67;3.03;;;;;;;4.93;100.00;101821.31;5227147;28;20070;-76
2022/02/07 06:08:40;;;;;;;19.67;3.03;;;;;;;4.99;100.00;101815.84;5226313;28;20431;-76
2022/02/07 06:11:12;;;;;;;14.20;2.92;;;;;;;5.07;100.00;101828.47;5223313;28;20034;-76
2022/02/07 06:13:43;;;;;;;13.88;2.90;;;;;;;5.04;100.00;101823.44;5225894;28;20029;-76
2022/02/07 06:16:17;;;;;;;12.88;2.90;;;;;;;5.11;100.00;101841.28;5225568;28;20037;-76
2022/02/07 06:18:49;;;;;;;18.40;2.90;;;;;;;5.18;100.00;101857.41;5227795;28;20037;-76
2022/02/07 06:21:20;;;;;;;15.55;3.40;;;;;;;5.16;100.00;101867.03;5222169;28;20037;-76
2022/02/07 06:23:53;;;;;;;11.30;2.35;;;;;;;5.24;100.00;101884.88;5227177;28;20025;-76
2022/02/07 06:26:25;;;;;;;15.13;3.35;;;;;;;5.18;100.00;101885.97;5225609;28;20161;-76
2022/02/07 06:28:57;;;;;;;18.02;3.00;;;;;;;5.11;100.00;101884.56;5225265;28;20164;-76
2022/02/07 06:31:29;;;;;;;14.53;2.23;;;;;;;5.12;100.00;101888.88;5226445;28;20156;-76
2022/02/07 06:34:00;;;;;;;14.27;2.80;;;;;;;5.01;100.00;101891.09;5209160;28;20135;-76
2022/02/07 06:36:31;;;;;;;14.95;3.25;;;;;;;5.11;100.00;101881.97;5223396;28;20429;-76
2022/02/07 06:39:03;;;;;;;19.10;2.88;;;;;;;5.01;100.00;101894.53;5222763;28;20033;-76
2022/02/07 06:41:34;;;;;;;18.95;3.00;;;;;;;5.05;100.00;101911.66;5223117;28;20030;-76
2022/02/07 06:44:05;;;;;;;16.80;4.07;;;;;;;4.96;100.00;101909.47;5225010;28;20026;-76
2022/02/07 06:46:37;;;;;;;17.40;2.80;;;;;;;4.81;100.00;101891.97;5223422;28;20038;-76
2022/02/07 06:49:08;;;;;;;9.93;3.35;;;;;;;4.81;100.00;101917.91;5207475;28;20033;-76
2022/02/07 06:51:40;;;;;;;12.77;2.80;;;;;;;4.85;100.00;101935.09;5224299;28;20041;-76
2022/02/07 06:54:11;;;;;;;12.25;2.53;;;;;;;4.83;100.00;101936.88;5223862;28;20096;-75
2022/02/07 06:56:44;;;;;;;17.15;2.47;;;;;;;4.76;100.00;101944.09;5222167;28;20087;-75
2022/02/07 06:59:17;;;;;;;10.75;2.35;;;;;;;4.72;100.00;101949.47;5223908;28;20021;-76
2022/02/07 07:01:49;;;;;;;11.35;2.70;;;;;;;4.66;100.00;101953.19;5225040;28;20029;-75
2022/02/07 07:04:21;;;;;;;13.95;2.30;;;;;;;4.48;100.00;101952.22;5224918;28;20014;-75
2022/02/07 07:06:52;;;;;;;11.55;2.58;;;;;;;4.50;100.00;101957.31;5212516;23;20073;-76
2022/02/07 07:09:23;;;;;;;13.55;2.53;;;;;;;4.55;100.00;101961.44;5193470;28;20040;-75
2022/02/07 07:12:02;;;;;;;12.90;2.40;;;;;;;4.49;100.00;101966.84;5197190;28;20027;-77
2022/02/07 07:14:43;;;;;;;9.13;2.08;;;;;;;4.50;100.00;101973.72;5197939;28;20109;-75
2022/02/07 07:17:15;;;;;;;16.60;2.92;;;;;;;4.49;100.00;101977.25;5195343;28;20026;-76
2022/02/07 07:19:46;;;;;;;13.73;2.08;;;;;;;4.49;100.00;101981.59;5194241;28;20022;-76
2022/02/07 07:22:17;;;;;;;16.25;2.85;;;;;;;4.50;100.00;101989.28;5196453;28;20026;-78
2022/02/07 07:24:49;;;;;;;15.35;2.80;;;;;;;4.56;100.00;102004.63;5194895;28;20026;-75
2022/02/07 07:27:24;;;;;;;14.13;2.90;;;;;;;4.59;100.00;102011.47;5196144;28;20033;-75
2022/02/07 07:29:56;;;;;;;13.90;2.97;;;;;;;4.56;100.00;102001.19;5193890;28;20034;-76
2022/02/07 07:32:30;;;;;;;18.17;2.88;;;;;;;4.62;100.00;102011.31;5195276;28;20477;-75
2022/02/07 07:35:02;;;;;;;13.02;2.80;;;;;;;4.62;100.00;102017.38;5194867;28;20070;-75
2022/02/07 07:37:33;;;;;;;19.95;3.85;;;;;;;4.64;100.00;102028.50;5196823;28;20068;-75
2022/02/07 07:40:05;;;;;;;21.23;3.92;;;;;;;4.67;100.00;102043.13;5196955;28;20473;-76
2022/02/07 07:42:36;;;;;;;16.02;2.95;;;;;;;4.72;100.00;102054.16;5194140;28;21921;-78
2022/02/07 07:45:09;;;;;;;17.98;3.78;;;;;;;4.80;100.00;102064.22;5207871;28;20088;-75
2022/02/07 07:47:44;;;;;;;16.98;4.63;;;;;;;4.83;100.00;102074.50;5209353;28;20037;-75
2022/02/07 08:01:17;;;;;;;17.45;3.50;;;;;;;4.94;100.00;102094.84;5214664;28;20500;-76
2022/02/07 08:03:58;;;;;;;21.50;4.10;;;;;;;5.09;100.00;102112.38;5214714;28;20030;-76
2022/02/07 08:06:36;;;;;;;21.52;3.88;;;;;;;5.14;100.00;102115.63;5214237;28;20075;-75
2022/02/07 08:11:41;;;;;;;22.67;3.72;;;;;;;5.21;100.00;102135.25;5214404;28;20188;-76
2022/02/07 08:14:13;;;;;;;15.68;3.20;;;;;;;5.22;100.00;102143.88;5213981;28;20494;-75
2022/02/07 08:16:45;;;;;;;12.85;3.30;;;;;;;5.24;100.00;102153.31;5214919;28;20017;-75
2022/02/07 08:19:17;;;;;;;12.40;3.28;;;;;;;5.27;100.00;102165.34;5214708;28;20491;-75
2022/02/07 08:21:48;;;;;;;16.38;3.65;;;;;;;5.30;100.00;102173.84;5214516;28;20248;-75
2022/02/07 08:24:19;;;;;;;17.02;3.17;;;;;;;5.37;100.00;102180.47;5197355;28;20022;-75
2022/02/07 08:26:53;;;;;;;13.60;3.85;;;;;;;5.35;100.00;102165.84;5217087;28;20022;-76
2022/02/07 08:29:25;;;;;;;17.88;3.33;;;;;;;5.42;100.00;102172.50;5214482;28;20512;-75
2022/02/07 08:31:56;;;;;;;20.98;3.22;;;;;;;5.44;100.00;102175.84;5214578;28;20032;-78
2022/02/07 08:34:27;;;;;;;21.00;3.80;;;;;;;5.48;100.00;102172.22;5212156;28;20033;-75
2022/02/07 08:37:02;;;;;;;23.58;3.80;;;;;;;5.52;100.00;102170.34;5218430;28;20112;-77
2022/02/07 08:39:34;;;;;;;23.98;5.30;;;;;;;5.51;100.00;102172.09;5220266;28;20025;-76
2022/02/07 08:42:06;;;;;;;21.00;4.38;;;;;;;5.50;100.00;102170.41;5218692;28;20399;-76
2022/02/07 08:44:37;;;;;;;17.65;4.00;;;;;;;5.57;100.00;102192.66;5216829;28;20033;-75
2022/02/07 08:47:09;;;;;;;15.93;4.18;;;;;;;5.63;100.00;102195.88;5217260;28;20046;-75
2022/02/07 08:49:40;;;;;;;23.15;4.05;;;;;;;5.76;100.00;102202.28;5218268;28;20112;-76
2022/02/07 08:52:13;;;;;;;13.90;3.33;;;;;;;5.82;100.00;102208.03;5200456;28;20030;-75
2022/02/07 08:54:44;;;;;;;15.40;3.80;;;;;;;5.90;100.00;102206.84;5217954;28;20548;-76
2022/02/07 09:03:07;;;;;;;18.70;3.78;;;;;;;5.95;100.00;102202.34;5217882;28;20534;-76
2022/02/07 09:05:48;;;;;;;26.58;4.78;;;;;;;5.95;100.00;102211.00;5217355;28;20045;-75
2022/02/07 09:08:25;;;;;;;22.15;4.47;;;;;;;5.86;100.00;102209.59;5219246;28;20036;-75
2022/02/07 09:10:56;;;;;;;15.18;3.42;;;;;;;5.90;100.00;102235.47;5218290;28;20406;-75
2022/02/07 09:13:30;;;;;;;15.10;3.20;;;;;;;5.98;100.00;102249.84;5218202;28;20045;-76
2022/02/07 09:16:18;;;;;;;18.42;3.63;;;;;;;6.03;100.00;102247.91;5217161;28;20037;-75
2022/02/07 09:18:49;;;;;;;21.17;3.72;;;;;;;6.08;100.00;102253.75;5217407;28;20121;-75
2022/02/07 09:21:20;;;;;;;17.73;2.95;;;;;;;6.13;100.00;102253.56;5217227;28;20153;-76
2022/02/07 09:23:52;;;;;;;20.63;3.47;;;;;;;6.32;100.00;102269.22;5217226;28;20033;-77
2022/02/07 09:26:24;;;;;;;15.80;3.78;;;;;;;6.40;100.00;102266.25;5217589;28;20032;-76
2022/02/07 09:28:55;;;;;;;19.77;3.65;;;;;;;6.40;100.00;102279.28;5217097;28;20030;-75
2022/02/07 09:31:27;;;;;;;16.00;3.40;;;;;;;6.44;100.00;102278.22;5216963;28;20308;-75
2022/02/07 09:33:58;;;;;;;22.50;4.28;;;;;;;6.49;100.00;102287.53;5218473;28;20053;-75
2022/02/07 09:36:30;;;;;;;15.10;3.08;;;;;;;6.53;100.00;102281.28;5215777;28;20029;-76
2022/02/07 09:39:02;;;;;;;19.52;3.78;;;;;;;6.65;100.00;102286.84;5216669;28;20045;-75
2022/02/07 09:41:35;;;;;;;18.02;2.95;;;;;;;6.70;100.00;102296.13;5218470;28;20022;-76
2022/02/07 09:44:08;;;;;;;13.15;3.30;;;;;;;6.73;100.00;102316.00;5218834;28;20108;-76
2022/02/07 09:46:46;;;;;;;16.80;3.45;;;;;;;6.71;100.00;102307.41;5218155;28;20021;-75
2022/02/07 09:49:18;;;;;;;22.00;3.58;;;;;;;6.64;100.00;102316.41;5217186;28;20045;-76
2022/02/07 09:51:50;;;;;;;13.02;3.15;;;;;;;6.69;100.00;102335.28;5218063;28;20436;-75
2022/02/07 09:54:22;;;;;;;16.08;3.00;;;;;;;6.62;100.00;102333.84;5217358;28;20032;-75
2022/02/07 09:56:54;;;;;;;16.52;3.50;;;;;;;6.57;100.00;102337.50;5217007;28;20402;-76
2022/02/07 09:59:29;;;;;;;17.45;3.10;;;;;;;6.63;100.00;102352.03;5217020;28;20037;-76
2022/02/07 10:02:06;;;;;;;17.05;3.45;;;;;;;6.67;100.00;102352.75;5216309;28;20347;-76
2022/02/07 10:04:42;;;;;;;12.65;2.47;;;;;;;6.67;100.00;102364.00;5216250;28;20037;-76
2022/02/07 10:09:55;;;;;;;16.45;3.53;;;;;;;6.57;100.00;102381.78;5214949;28;20037;-76
2022/02/07 10:12:34;;;;;;;14.82;2.67;;;;;;;6.55;100.00;102393.16;5215733;28;20026;-75
2022/02/07 10:15:25;;;;;;;16.63;2.50;;;;;;;6.57;100.00;102405.22;5217313;28;20464;-75
2022/02/07 10:35:50;;;;;;;16.60;3.00;;;;;;;6.75;100.00;102414.00;5216637;28;20030;-73
2022/02/07 10:43:43;;;;;;;18.20;3.03;;;;;;;6.90;100.00;102432.47;5215507;28;20037;-73
2022/02/07 10:46:17;;;;;;;18.88;4.32;;;;;;;6.87;100.00;102432.59;5217921;28;20037;-73
2022/02/07 10:48:52;;;;;;;16.38;3.58;;;;;;;6.90;100.00;102445.50;5216659;28;20056;-74
2022/02/07 10:51:31;;;;;;;11.75;2.72;;;;;;;6.99;100.00;102451.16;5214973;28;20026;-73
2022/02/07 10:54:11;;;;;;;23.45;4.55;;;;;;;6.96;100.00;102450.44;5216304;28;20038;-73
2022/02/07 10:56:45;;;;;;;13.93;3.15;;;;;;;7.00;100.00;102452.81;5218264;28;20477;-75
2022/02/07 10:59:20;;;;;;;20.58;3.83;;;;;;;7.20;100.00;102453.72;5215999;28;20034;-73
2022/02/07 11:05:01;;;;;;;12.85;2.53;;;;;;;7.47;100.00;102443.81;5183036;28;20042;-73
2022/02/07 11:07:33;;;;;;;15.43;3.25;;;;;;;7.46;100.00;102449.91;5214607;28;20505;-73
2022/02/07 11:15:59;;;;;;;18.15;3.60;;;;;;;7.82;100.00;102455.19;5215348;28;20104;-72
2022/02/07 11:21:40;;;;;;;11.25;2.83;;;;;;;7.85;100.00;102455.06;5216815;28;20046;-73
2022/02/07 11:27:29;;;;;;;15.82;3.00;;;;;;;7.98;100.00;102465.75;5215525;28;20036;-74
2022/02/07 11:30:07;;;;;;;12.77;2.60;;;;;;;7.82;100.00;102465.63;5205509;28;20774;-75
2022/02/07 11:32:38;;;;;;;13.18;3.15;;;;;;;7.80;100.00;102470.94;5214865;28;20028;-75
2022/02/07 11:35:23;;;;;;;16.03;3.43;;;;;;;7.98;100.00;102466.59;5214228;28;20495;-74
2022/02/07 11:38:06;;;;;;;15.55;2.72;;;;;;;8.00;100.00;102479.56;5214747;28;20281;-74
2022/02/07 11:40:41;;;;;;;17.13;3.10;;;;;;;7.84;100.00;102474.25;5212434;28;20037;-73
2022/02/07 11:43:21;;;;;;;13.52;2.40;;;;;;;7.91;100.00;102480.00;5213279;28;20379;-73
2022/02/07 11:46:07;;;;;;;11.65;2.58;;;;;;;7.88;100.00;102474.91;5215400;28;20232;-73
2022/02/07 11:48:47;;;;;;;15.60;2.72;;;;;;;7.84;100.00;102482.06;5214539;28;20615;-74
2022/02/07 11:51:26;;;;;;;14.25;2.88;;;;;;;7.82;100.00;102481.28;5217056;28;20479;-73
2022/02/07 11:54:03;;;;;;;15.07;3.20;;;;;;;7.81;100.00;102482.22;5216695;28;20034;-74
2022/02/07 11:56:47;;;;;;;17.63;2.85;;;;;;;7.72;100.00;102480.84;5214597;28;20471;-73
2022/02/07 11:59:38;;;;;;;16.08;3.03;;;;;;;7.67;100.00;102475.03;5214247;28;20034;-75
2022/02/07 12:02:19;;;;;;;11.02;2.80;;;;;;;7.71;100.00;102481.78;5215844;28;20022;-74
2022/02/07 12:04:53;;;;;;;11.23;1.95;;;;;;;7.79;100.00;102481.41;5213637;28;20563;-75
2022/02/07 12:07:37;;;;;;;14.02;3.05;;;;;;;7.83;100.00;102476.91;5214836;28;20207;-73
2022/02/07 12:10:26;;;;;;;18.52;2.92;;;;;;;7.75;100.00;102475.50;5215713;28;20034;-76
2022/02/07 12:13:01;;;;;;;14.70;2.47;;;;;;;7.60;100.00;102463.16;5216464;28;20026;-74
2022/02/07 12:15:46;;;;;;;11.63;2.72;;;;;;;7.63;100.00;102462.19;5214617;28;20026;-74
2022/02/07 12:18:23;;;;;;;14.25;2.38;;;;;;;7.68;100.00;102476.69;5214746;28;20033;-73
2022/02/07 12:21:13;;;;;;;10.15;2.30;;;;;;;7.74;100.00;102472.97;5197555;28;20475;-73
2022/02/07 12:23:49;;;;;;;11.45;2.60;;;;;;;7.55;100.00;102475.59;5214588;28;20033;-73
2022/02/07 12:26:22;;;;;;;13.95;2.85;;;;;;;7.38;100.00;102468.53;5213379;28;20618;-74
2022/02/07 12:29:00;;;;;;;10.07;2.15;;;;;;;7.39;100.00;102479.81;5214653;28;20026;-73
2022/02/07 12:31:31;;;;;;;12.73;2.50;;;;;;;7.33;100.00;102483.53;5213255;28;20028;-75
2022/02/07 12:34:12;;;;;;;8.98;1.90;;;;;;;7.45;100.00;102476.91;5213247;28;20029;-74
2022/02/07 12:36:44;;;;;;;14.85;3.45;;;;;;;7.44;100.00;102480.44;5196768;28;20029;-73
2022/02/07 12:39:15;;;;;;;12.45;1.90;;;;;;;7.51;100.00;102492.28;5196624;28;20029;-76
2022/02/07 12:41:46;;;;;;;10.55;2.15;;;;;;;7.52;100.00;102481.78;5214244;28;20044;-75
2022/02/07 12:44:22;;;;;;;12.85;2.55;;;;;;;7.60;100.00;102476.22;5215674;28;20018;-74
2022/02/07 12:46:56;;;;;;;11.20;2.38;;;;;;;7.73;100.00;102492.16;5215175;28;20475;-73
2022/02/07 12:49:35;;;;;;;10.95;2.13;;;;;;;7.93;100.00;102494.66;5214778;28;20029;-73
2022/02/07 12:52:06;;;;;;;9.80;2.55;;;;;;;7.90;100.00;102501.81;5213584;28;20032;-76
2022/02/07 12:54:39;;;;;;;12.43;2.35;;;;;;;7.91;100.00;102488.66;5215439;28;20033;-76
2022/02/07 12:57:10;;;;;;;10.70;2.15;;;;;;;7.94;100.00;102485.91;5214592;28;20079;-74
2022/02/07 12:59:51;;;;;;;9.75;2.50;;;;;;;8.08;100.00;102494.88;5212078;28;20145;-74
2022/02/07 13:02:29;;;;;;;11.77;2.55;;;;;;;7.98;100.00;102502.28;5214095;28;20566;-74
2022/02/07 13:05:09;;;;;;;12.18;2.28;;;;;;;7.93;100.00;102517.31;5214433;28;20028;-75
2022/02/07 13:07:45;;;;;;;9.63;2.00;;;;;;;7.70;100.00;102518.38;5213270;28;20050;-74
2022/02/07 13:10:22;;;;;;;19.02;2.70;;;;;;;7.69;100.00;102520.16;5213154;28;20037;-74
2022/02/07 13:15:35;;;;;;;5.78;1.67;;;;;;;7.50;100.00;102509.72;5213601;28;20415;-74
2022/02/07 13:18:13;;;;;;;12.43;2.30;;;;;;;7.55;100.00;102514.72;5214064;28;21163;-74
2022/02/07 13:20:44;;;;;;;13.10;2.35;;;;;;;7.57;100.00;102524.13;5214098;28;20037;-74
2022/02/07 13:23:18;;;;;;;9.07;2.35;;;;;;;7.66;100.00;102520.28;5220354;28;20026;-74
2022/02/07 13:25:53;;;;;;;11.77;2.00;;;;;;;7.70;100.00;102529.66;5217567;28;20113;-74
2022/02/07 13:28:27;;;;;;;12.13;1.95;;;;;;;7.69;100.00;102521.88;5219279;28;20458;-74
2022/02/07 13:31:01;;;;;;;8.68;1.73;;;;;;;7.88;100.00;102527.97;5217562;28;20446;-74
2022/02/07 13:33:49;;;;;;;7.63;2.00;;;;;;;7.95;100.00;102518.91;5216903;28;20128;-74
2022/02/07 13:36:25;;;;;;;8.10;1.60;;;;;;;8.02;100.00;102535.97;5217407;28;20038;-74
2022/02/07 13:39:03;;;;;;;9.15;1.70;;;;;;;8.08;100.00;102534.03;5217151;28;20061;-74
2022/02/07 13:41:35;;;;;;;9.60;2.08;;;;;;;8.19;100.00;102539.59;5216933;28;20414;-74
2022/02/07 13:44:09;;;;;;;11.50;1.95;;;;;;;8.25;100.00;102542.72;5217667;28;20029;-74
2022/02/07 13:46:40;;;;;;;11.68;1.75;;;;;;;8.28;100.00;102547.81;5217385;28;20093;-74
2022/02/07 13:49:15;;;;;;;9.38;1.55;;;;;;;8.24;100.00;102553.25;5216669;28;20149;-74
2022/02/07 13:51:47;;;;;;;11.32;1.77;;;;;;;8.14;100.00;102545.00;5218224;28;20221;-74
2022/02/07 13:54:32;;;;;;;8.73;2.00;;;;;;;8.29;100.00;102553.88;5216455;28;20610;-74
2022/02/07 13:57:03;;;;;;;10.80;2.42;;;;;;;8.27;100.00;102555.72;5218177;28;20353;-73
2022/02/07 13:59:36;;;;;;;8.50;1.67;;;;;;;8.31;100.00;102553.81;5215511;28;20455;-74
2022/02/07 14:02:29;;;;;;;11.23;1.70;;;;;;;8.51;100.00;102556.34;5217655;28;20030;-74
2022/02/07 14:05:01;;;;;;;9.05;1.70;;;;;;;8.41;100.00;102555.06;5218595;28;20091;-74
2022/02/07 14:07:48;;;;;;;9.30;1.63;;;;;;;8.49;100.00;102556.41;5216809;28;20046;-74
2022/02/07 14:10:21;;;;;;;6.80;1.95;;;;;;;8.31;100.00;102559.88;5216553;28;20029;-74
2022/02/07 14:12:52;;;;;;;7.88;1.67;;;;;;;8.25;100.00;102561.00;5217245;28;20037;-76
2022/02/07 14:15:24;;;;;;;7.75;1.73;;;;;;;8.16;100.00;102550.16;5219507;28;20021;-76